Nearby METAR Reports

 

KSEE - San Diego/Santee, California, USA
Distance from station: E 4mi, 6km
Updated: 08/21/2017 1:47pm
Clear
Clear
 Wind from WSW
Wind: WSW 9 mph , 15 km/h
Temperature: 84°F , 29°C
Heat Index: 84°F , 29°C
Dew Point: 59°F , 15°C
Humidity: 43%
Barometer: 29.98 inHg , 1015.2 hPa
Clouds: Clear
Visibility: 10 miles , 16 km
2017/08/21 20:47 KSEE 212047Z 25008KT 10SM SKC 29/15 A2998
KMYF - San Diego/Mntgmy, California, USA
Distance from station: W 6mi, 10km
Updated: 08/21/2017 1:53pm
Clear
Clear
 Wind from NW
Wind: NW 10 mph , 17 km/h
Temperature: 81°F , 27°C
Heat Index: 82°F , 28°C
Dew Point: 61°F , 16°C
Humidity: 51%
Barometer: 30.00 inHg , 1015.9 hPa
Clouds: Clear
Visibility: 10 miles , 16 km
2017/08/21 20:53 KMYF 212053Z 31009KT 10SM CLR 27/16 A3000 RMK AO2 SLP153 T02670156 56005
 
KNKX - Miramar Nas/San, California, USA
Distance from station: WNW 7mi, 11km
Updated: 08/21/2017 1:55pm
Few Clouds
Few Clouds
 Wind from WNW
Wind: WNW 9 mph , 15 km/h
Temperature: 81°F , 27°C
Heat Index: 81°F , 27°C
Dew Point: 59°F , 15°C
Humidity: 48%
Barometer: 30.00 inHg , 1015.9 hPa
Clouds: Few Clouds
Visibility: 10 miles , 16 km
Cloud details: Few Clouds 2000 ft
2017/08/21 20:55 KNKX 212055Z 29008KT 250V310 10SM FEW020 27/15 A3000 RMK AO2 SLP151 T02720150 56003 $
KSAN - San Diego, California, USA
Distance from station: WSW 11mi, 17km
Updated: 08/21/2017 1:51pm
Few Clouds
Few Clouds
 Wind from WNW
Wind: WNW 10 mph , 17 km/h
Temperature: 77°F , 25°C
Dew Point: 61°F , 16°C
Humidity: 57%
Barometer: 30.01 inHg , 1016.3 hPa
Clouds: Few Clouds
Visibility: 10 miles , 16 km
Cloud details: Few Clouds 2600 ft
2017/08/21 20:51 KSAN 212051Z 29009KT 10SM FEW026 25/16 A3001 RMK AO2 SLP162 T02500161 56003
 
KNZY - North Island Nas, California, USA
Distance from station: SW 13mi, 22km
Updated: 08/21/2017 1:52pm
Few Clouds
Few Clouds
 Wind from WNW
Wind: WNW 10 mph , 17 km/h
Temperature: 75°F , 24°C
Dew Point: 61°F , 16°C
Humidity: 61%
Barometer: 29.99 inHg , 1015.6 hPa
Clouds: Few Clouds
Visibility: 10 miles , 16 km
Cloud details: Few Clouds 2200 ft
2017/08/21 20:52 KNZY 212052Z 29009KT 10SM FEW022 24/16 A2999 RMK SLP156 T02440161
KRNM - Ramona, California, USA
Distance from station: NNE 16mi, 26km
Updated: 08/21/2017 1:53pm
Clear
Clear
 Wind from WNW
Wind: WNW 9 mph , 15 km/h
Temperature: 84°F , 29°C
Heat Index: 84°F , 29°C
Dew Point: 59°F , 15°C
Humidity: 43%
Barometer: 30.00 inHg , 1015.9 hPa
Clouds: Clear
Visibility: 10 miles , 16 km
2017/08/21 20:53 KRNM 212053Z 30008KT 10SM CLR 29/15 A3000 RMK AO2 SLP144 T02940150 56007
 
KSDM - San Diego/Brown, California, USA
Distance from station: S 16mi, 26km
Updated: 08/21/2017 1:53pm
Clear
Clear
 Wind from WNW
Wind: WNW 10 mph , 17 km/h, Gust: 17 mph , 28 km/h
Temperature: 77°F , 25°C
Dew Point: 63°F , 17°C
Humidity: 61%
Barometer: 30.00 inHg , 1015.9 hPa
Clouds: Clear
Visibility: 10 miles , 16 km
2017/08/21 20:53 KSDM 212053Z 29009G15KT 270V330 10SM CLR 25/17 A3000 RMK AO2 SLP152 T02500167 56005
KNRS - Imperial Beach, California, USA
Distance from station: SSW 18mi, 29km
Updated: 08/21/2017 1:56pm
Few Clouds
Few Clouds
 Wind from W
Wind: W 13 mph , 20 km/h
Temperature: 73°F , 23°C
Dew Point: 61°F , 16°C
Humidity: 65%
Barometer: 30.01 inHg , 1016.3 hPa
Clouds: Few Clouds
Visibility: 10 miles , 16 km
Cloud details: Few Clouds 2400 ft
2017/08/21 20:56 KNRS 212056Z 28011KT 10SM FEW024 23/16 A3001 RMK AO2 SLP160 T02330161 56003 $
 
MMTJ - Tijuana Intl Arp, Mexico
Distance from station: S 20mi, 32km
Updated: 08/21/2017 1:45pm
Clear
Clear
 Wind from WNW
Wind: WNW 12 mph , 19 km/h
Temperature: 77°F , 25°C
Dew Point: 61°F , 16°C
Humidity: 57%
Barometer: 30.02 inHg , 1016.6 hPa
Clouds: Clear
Visibility: 8 miles , 13 km
2017/08/21 20:45 MMTJ 212045Z 29010KT 8SM SKC 25/16 A3002 RMK SLP167 57003 930 HZY ST W
KCRQ - Carlsbad, California, USA
Distance from station: NW 26mi, 43km
Updated: 08/21/2017 1:53pm
Clear
Clear
 Wind from varies
Wind: varies 7 mph , 11 km/h
Temperature: 73°F , 23°C
Dew Point: 61°F , 16°C
Humidity: 65%
Barometer: 29.99 inHg , 1015.6 hPa
Clouds: Clear
Visibility: 10 miles , 16 km
2017/08/21 20:53 KCRQ 212053Z AUTO VRB06KT 10SM CLR 23/16 A2999 RMK AO2 SLP153 T02330161 58004
 
KOKB - Oceanside, California, USA
Distance from station: NW 33mi, 54km
Updated: 08/21/2017 1:52pm
Clear
Clear
 Wind from W
Wind: W 13 mph , 20 km/h
Temperature: 77°F , 25°C
Dew Point: 63°F , 17°C
Humidity: 61%
Barometer: 29.98 inHg , 1015.2 hPa
Clouds: Clear
Visibility: 10 miles , 16 km
2017/08/21 20:52 KOKB 212052Z AUTO 26011KT 10SM CLR 25/17 A2998 RMK AO2 SLP153 T02500167 58004
KCZZ - Campo, California, USA
Distance from station: ESE 35mi, 56km
Updated: 08/21/2017 1:52pm

 Wind from SW
Wind: SW 13 mph , 20 km/h, Gust: 17 mph , 28 km/h
Temperature: 88°F , 31°C
Dew Point: 45°F , 7°C
Humidity: 22%
Barometer: 30.00 inHg , 1015.9 hPa
2017/08/21 20:52 KCZZ 212052Z AUTO 22011G15KT 31/07 A3000 RMK AO1 SLP127 T03060072 57007
 
KNFG - Camp Pendleton, California, USA
Distance from station: NNW 37mi, 59km
Updated: 08/21/2017 1:55pm
Few Clouds
Few Clouds
 Wind from WSW
Wind: WSW 10 mph , 17 km/h
Temperature: 66°F , 19°C
Dew Point: 59°F , 15°C
Humidity: 78%
Barometer: 29.98 inHg , 1015.2 hPa
Clouds: Few Clouds
Visibility: 7 miles , 11 km
Cloud details: Few Clouds 3000 ft
2017/08/21 20:55 KNFG 212055Z 25009KT 7SM FEW030 19/15 A2998 RMK AO2 SLP152 T01940150 56007 $
KRIV - Riverside/March, California, USA
Distance from station: N 74mi, 119km
Updated: 08/21/2017 1:58pm
Clear
Clear
 Wind from WNW
Wind: WNW 8 mph , 13 km/h
Temperature: 86°F , 30°C
Dew Point: 52°F , 11°C
Humidity: 31%
Barometer: 30.00 inHg , 1015.9 hPa
Clouds: Clear
Visibility: 10 miles , 16 km
2017/08/21 20:58 KRIV 212058Z AUTO 30007KT 10SM CLR 30/11 A3000 RMK AO2 SLP147 T03010107 57009
 
KTRM - Thermal/Palm Spg, California, USA
Distance from station: NE 75mi, 121km
Updated: 08/21/2017 1:52pm
Clear
Clear
 Wind from varies
Wind: varies 6 mph , 9 km/h
Temperature: 106°F , 41°C
Dew Point: 41°F , 5°C
Humidity: 11%
Barometer: 29.81 inHg , 1009.5 hPa
Clouds: Clear
Visibility: 10 miles , 16 km
2017/08/21 20:52 KTRM 212052Z AUTO VRB05KT 10SM CLR 41/05 A2981 RMK AO2 SLP098 6//// T04060050
KPSP - Palm Springs, California, USA
Distance from station: NNE 76mi, 122km
Updated: 08/21/2017 1:53pm
Clear
Clear
 Wind from E
Wind: E 7 mph , 11 km/h, Gust: 15 mph , 24 km/h
Temperature: 104°F , 40°C
Dew Point: 39°F , 4°C
Humidity: 11%
Barometer: 29.88 inHg , 1011.9 hPa
Clouds: Clear
Visibility: 10 miles , 16 km
2017/08/21 20:53 KPSP 212053Z 08006G13KT 10SM CLR 40/04 A2988 RMK AO2 SLP112 T04000039 58012
 
KSNA - Costa Mesa, California, USA
Distance from station: NW 76mi, 123km
Updated: 08/21/2017 1:53pm
Clear
Clear
 Wind from W
Wind: W 7 mph , 11 km/h
Temperature: 75°F , 24°C
Dew Point: 61°F , 16°C
Humidity: 61%
Barometer: 29.99 inHg , 1015.6 hPa
Clouds: Clear
Visibility: 10 miles , 16 km
2017/08/21 20:53 KSNA 212053Z 27006KT 10SM CLR 24/16 A2999 RMK AO2 SLP155 T02440156 56005
KNJK - El Centro Naf, California, USA
Distance from station: E 79mi, 127km
Updated: 08/21/2017 1:56pm
Clear
Clear
 
Temperature: 104°F , 40°C
Dew Point: 37°F , 3°C
Humidity: 10%
Barometer: 29.85 inHg , 1010.8 hPa
Clouds: Clear
Visibility: 10 miles , 16 km
2017/08/21 20:56 KNJK 212056Z 10SM CLR 40/03 A2985 RMK AO2 SLP123 T04000033 58010
 
KAJO - Corona Muni, California, USA
Distance from station: NNW 82mi, 132km
Updated: 08/21/2017 1:56pm
Clear
Clear
 Wind from W
Wind: W 12 mph , 19 km/h, Gust: 17 mph , 28 km/h
Temperature: 84°F , 29°C
Heat Index: 84°F , 29°C
Dew Point: 61°F , 16°C
Humidity: 45%
Barometer: 29.97 inHg , 1014.9 hPa
Clouds: Clear
Visibility: 10 miles , 16 km
2017/08/21 20:56 KAJO 212056Z AUTO 27010G15KT 10SM CLR 29/16 A2997 RMK AO2 SLP155 T02940161 56017